Time;durP1;ratioP1;P1;durP2;ratioP2;P2;SDS_P1;SDS_P2;PMS_P1;PMS_P2;Temp;Humidity;BMP_temperature;BMP_pressure;BME280_temperature;BME280_humidity;BME280_pressure;Samples;Min_cycle;Max_cycle;Signal;HPM_P1;HPM_P2
2022/03/10 00:01:44;;;;;;;26.97;15.47;;;;;;;;;;5048357;28;20296;-61
2022/03/10 00:04:10;;;;;;;34.97;16.33;;;;;;;;;;5047923;28;20669;-61
2022/03/10 00:06:36;;;;;;;27.63;15.90;;;;;;;;;;5048464;28;20275;-62
2022/03/10 00:09:02;;;;;;;25.07;14.97;;;;;;;;;;5046523;28;20540;-61
2022/03/10 00:11:29;;;;;;;26.57;14.47;;;;;;;;;;5048246;28;20292;-61
2022/03/10 00:13:55;;;;;;;29.80;15.83;;;;;;;;;;5047289;28;20341;-61
2022/03/10 00:16:21;;;;;;;29.50;16.37;;;;;;;;;;5046587;28;20887;-61
2022/03/10 00:18:47;;;;;;;32.07;16.43;;;;;;;;;;5048829;28;20284;-61
2022/03/10 00:21:14;;;;;;;31.97;15.53;;;;;;;;;;5046674;28;20295;-61
2022/03/10 00:23:40;;;;;;;30.10;14.90;;;;;;;;;;5048175;28;20311;-61
2022/03/10 00:26:06;;;;;;;29.07;16.80;;;;;;;;;;5052157;28;20303;-61
2022/03/10 00:28:33;;;;;;;29.63;16.47;;;;;;;;;;5051622;28;20283;-61
2022/03/10 00:30:59;;;;;;;28.73;15.07;;;;;;;;;;5050237;28;20292;-61
2022/03/10 00:33:25;;;;;;;28.73;15.57;;;;;;;;;;5051521;28;20461;-61
2022/03/10 00:35:52;;;;;;;36.77;18.90;;;;;;;;;;5052553;28;20278;-61
2022/03/10 00:38:18;;;;;;;34.13;18.33;;;;;;;;;;5050535;28;20291;-61
2022/03/10 00:40:45;;;;;;;32.80;17.23;;;;;;;;;;5051617;28;20310;-62
2022/03/10 00:43:14;;;;;;;35.53;17.27;;;;;;;;;;5051836;28;20642;-61
2022/03/10 00:45:40;;;;;;;31.30;16.93;;;;;;;;;;5050849;28;20643;-61
2022/03/10 00:48:09;;;;;;;27.77;16.17;;;;;;;;;;5052512;28;20361;-61
2022/03/10 00:50:35;;;;;;;27.00;15.30;;;;;;;;;;5051075;28;20331;-61
2022/03/10 00:53:01;;;;;;;29.93;16.50;;;;;;;;;;5050190;28;20300;-61
2022/03/10 00:55:27;;;;;;;26.63;14.73;;;;;;;;;;5052116;28;21079;-61
2022/03/10 00:57:53;;;;;;;29.97;16.43;;;;;;;;;;5050848;28;20303;-61
2022/03/10 01:00:21;;;;;;;34.00;16.47;;;;;;;;;;5050856;28;20295;-61
2022/03/10 01:02:48;;;;;;;29.60;17.10;;;;;;;;;;5056927;28;20299;-61
2022/03/10 01:05:14;;;;;;;32.37;17.33;;;;;;;;;;5051745;28;20315;-61
2022/03/10 01:07:40;;;;;;;33.10;16.23;;;;;;;;;;5050075;28;20308;-61
2022/03/10 01:10:06;;;;;;;30.73;16.27;;;;;;;;;;5050971;28;20280;-61
2022/03/10 01:12:33;;;;;;;33.20;15.83;;;;;;;;;;5050793;28;20308;-61
2022/03/10 01:14:59;;;;;;;34.20;17.97;;;;;;;;;;5050939;28;20300;-61
2022/03/10 01:17:25;;;;;;;32.73;16.70;;;;;;;;;;5050307;28;20295;-61
2022/03/10 01:19:51;;;;;;;28.23;16.07;;;;;;;;;;5051652;28;20286;-61
2022/03/10 01:22:18;;;;;;;33.83;16.97;;;;;;;;;;5050682;28;20303;-61
2022/03/10 01:24:44;;;;;;;32.07;16.90;;;;;;;;;;5051577;28;20339;-61
2022/03/10 01:27:10;;;;;;;33.27;18.10;;;;;;;;;;5050169;28;20346;-61
2022/03/10 01:29:37;;;;;;;33.90;16.83;;;;;;;;;;5051096;28;20308;-61
2022/03/10 01:32:03;;;;;;;33.23;17.03;;;;;;;;;;5049125;28;20708;-61
2022/03/10 01:34:29;;;;;;;33.63;16.40;;;;;;;;;;5050858;28;20333;-61
2022/03/10 01:36:56;;;;;;;31.40;16.23;;;;;;;;;;5041403;28;20403;-61
2022/03/10 01:39:22;;;;;;;31.67;17.53;;;;;;;;;;5050605;28;20306;-61
2022/03/10 01:41:48;;;;;;;28.80;16.60;;;;;;;;;;5050947;28;20295;-61
2022/03/10 01:44:14;;;;;;;29.43;15.53;;;;;;;;;;5045431;28;20314;-61
2022/03/10 01:46:40;;;;;;;31.13;17.10;;;;;;;;;;5050911;28;20820;-61
2022/03/10 01:49:07;;;;;;;27.73;15.53;;;;;;;;;;5049609;28;20306;-61
2022/03/10 01:51:34;;;;;;;32.10;17.13;;;;;;;;;;5050010;28;20777;-61
2022/03/10 01:54:01;;;;;;;28.63;15.27;;;;;;;;;;5050107;28;20726;-61
2022/03/10 01:56:27;;;;;;;31.57;17.30;;;;;;;;;;5050905;28;20808;-61
2022/03/10 01:58:54;;;;;;;30.90;16.63;;;;;;;;;;5050060;28;20296;-61
2022/03/10 02:01:20;;;;;;;30.80;17.07;;;;;;;;;;5049886;28;20303;-61
2022/03/10 02:03:47;;;;;;;31.43;17.13;;;;;;;;;;5050404;28;20300;-61
2022/03/10 02:06:14;;;;;;;29.67;15.43;;;;;;;;;;5049980;28;20740;-61
2022/03/10 02:11:25;;;;;;;27.67;15.27;;;;;;;;;;5050653;28;20288;-61
2022/03/10 02:13:51;;;;;;;33.70;17.50;;;;;;;;;;5049211;28;20303;-61
2022/03/10 02:19:03;;;;;;;29.30;15.53;;;;;;;;;;5049970;28;20303;-61
2022/03/10 02:21:30;;;;;;;30.93;16.03;;;;;;;;;;5052613;28;20330;-61
2022/03/10 02:23:56;;;;;;;27.73;14.00;;;;;;;;;;5050329;28;20319;-61
2022/03/10 02:26:22;;;;;;;28.80;15.60;;;;;;;;;;5048151;28;20300;-61
2022/03/10 02:28:49;;;;;;;28.33;14.33;;;;;;;;;;5050042;28;20338;-61
2022/03/10 02:31:16;;;;;;;26.10;15.03;;;;;;;;;;5049951;28;20288;-61
2022/03/10 02:33:42;;;;;;;27.37;14.30;;;;;;;;;;5048220;28;20307;-61
2022/03/10 02:36:08;;;;;;;31.50;15.13;;;;;;;;;;5050138;28;20298;-61
2022/03/10 02:38:34;;;;;;;28.13;14.50;;;;;;;;;;5048329;28;20300;-61
2022/03/10 02:41:00;;;;;;;26.77;15.07;;;;;;;;;;5049953;28;20279;-61
2022/03/10 02:43:26;;;;;;;26.07;13.90;;;;;;;;;;5049248;28;20304;-61
2022/03/10 02:45:52;;;;;;;25.43;13.60;;;;;;;;;;5049504;28;20279;-61
2022/03/10 02:48:19;;;;;;;25.13;14.73;;;;;;;;;;5048758;28;20300;-62
2022/03/10 02:50:46;;;;;;;25.70;13.70;;;;;;;;;;5049937;28;20352;-61
2022/03/10 02:53:12;;;;;;;25.90;14.60;;;;;;;;;;5049494;28;20802;-61
2022/03/10 02:55:39;;;;;;;26.23;14.53;;;;;;;;;;5048657;28;20299;-61
2022/03/10 02:58:05;;;;;;;32.43;14.30;;;;;;;;;;5049477;28;20287;-61
2022/03/10 03:00:31;;;;;;;30.97;14.30;;;;;;;;;;5048318;28;20307;-61
2022/03/10 03:02:57;;;;;;;30.63;14.97;;;;;;;;;;5049786;28;20291;-61
2022/03/10 03:05:24;;;;;;;25.57;14.07;;;;;;;;;;5048734;28;20311;-61
2022/03/10 03:07:50;;;;;;;25.33;15.40;;;;;;;;;;5048945;28;20665;-61
2022/03/10 03:10:17;;;;;;;25.67;15.03;;;;;;;;;;5046808;28;20346;-61
2022/03/10 03:12:47;;;;;;;26.30;14.50;;;;;;;;;;5048599;28;20308;-61
2022/03/10 03:15:13;;;;;;;24.63;15.00;;;;;;;;;;5047944;28;20295;-61
2022/03/10 03:17:39;;;;;;;23.63;13.47;;;;;;;;;;5049121;28;20288;-61
2022/03/10 03:20:06;;;;;;;28.50;16.43;;;;;;;;;;5048609;28;20294;-61
2022/03/10 03:22:32;;;;;;;25.63;14.13;;;;;;;;;;5049232;28;20287;-61
2022/03/10 03:24:58;;;;;;;25.97;13.63;;;;;;;;;;5047637;28;20307;-61
2022/03/10 03:27:24;;;;;;;23.87;13.37;;;;;;;;;;5049404;28;20291;-61
2022/03/10 03:29:50;;;;;;;24.37;13.40;;;;;;;;;;5047456;28;20303;-61
2022/03/10 03:32:16;;;;;;;26.67;15.90;;;;;;;;;;5048209;28;20299;-61
2022/03/10 03:34:42;;;;;;;27.50;15.17;;;;;;;;;;5048291;28;20337;-61
2022/03/10 03:37:08;;;;;;;24.30;13.87;;;;;;;;;;5048113;28;20368;-61
2022/03/10 03:39:34;;;;;;;25.30;14.57;;;;;;;;;;5040699;28;20382;-61
2022/03/10 03:42:00;;;;;;;25.93;14.70;;;;;;;;;;5047151;28;20361;-61
2022/03/10 03:44:26;;;;;;;25.27;14.50;;;;;;;;;;5048683;28;20670;-61
2022/03/10 03:46:53;;;;;;;26.97;14.43;;;;;;;;;;5048056;28;20820;-61
2022/03/10 03:49:19;;;;;;;24.83;13.80;;;;;;;;;;5048432;28;20795;-61
2022/03/10 03:51:45;;;;;;;26.70;13.63;;;;;;;;;;5048072;28;20296;-61
2022/03/10 03:54:11;;;;;;;26.60;14.97;;;;;;;;;;5048202;28;20300;-61
2022/03/10 03:56:37;;;;;;;25.63;14.80;;;;;;;;;;5047923;28;21212;-61
2022/03/10 03:59:04;;;;;;;23.70;14.67;;;;;;;;;;5048279;28;20295;-61
2022/03/10 04:01:30;;;;;;;27.67;14.53;;;;;;;;;;5047424;28;20303;-61
2022/03/10 04:03:56;;;;;;;25.53;14.50;;;;;;;;;;5048580;28;20311;-61
2022/03/10 04:06:22;;;;;;;27.60;14.43;;;;;;;;;;5047857;28;20310;-61
2022/03/10 04:08:48;;;;;;;24.40;14.60;;;;;;;;;;5046985;28;20646;-61
2022/03/10 04:11:15;;;;;;;25.83;15.03;;;;;;;;;;5048144;28;20291;-61
2022/03/10 04:13:41;;;;;;;24.43;14.23;;;;;;;;;;5047247;28;20304;-61
2022/03/10 04:16:07;;;;;;;28.00;15.10;;;;;;;;;;5048468;28;20288;-61
2022/03/10 04:18:33;;;;;;;24.67;14.47;;;;;;;;;;5048047;28;20303;-61
2022/03/10 04:21:00;;;;;;;25.60;14.37;;;;;;;;;;5048092;28;20295;-61
2022/03/10 04:23:26;;;;;;;25.47;16.00;;;;;;;;;;5048039;28;20386;-61
2022/03/10 04:25:53;;;;;;;28.30;14.83;;;;;;;;;;5047725;28;20291;-61
2022/03/10 04:28:19;;;;;;;24.70;13.33;;;;;;;;;;5047460;28;20287;-61
2022/03/10 04:30:45;;;;;;;31.20;14.00;;;;;;;;;;5046980;28;20311;-61
2022/03/10 04:33:11;;;;;;;23.33;13.37;;;;;;;;;;5047050;28;20385;-61
2022/03/10 04:35:38;;;;;;;30.20;15.20;;;;;;;;;;5047124;28;20397;-61
2022/03/10 04:38:04;;;;;;;26.77;13.43;;;;;;;;;;5049764;28;20307;-61
2022/03/10 04:40:31;;;;;;;27.73;16.67;;;;;;;;;;5047567;28;20333;-62
2022/03/10 04:42:58;;;;;;;28.20;15.23;;;;;;;;;;5060681;28;20820;-61
2022/03/10 04:45:24;;;;;;;26.27;15.87;;;;;;;;;;5050852;28;20323;-61
2022/03/10 04:47:50;;;;;;;28.87;16.00;;;;;;;;;;5047717;28;20288;-61
2022/03/10 04:50:16;;;;;;;27.50;16.03;;;;;;;;;;5052360;28;20652;-61
2022/03/10 04:52:43;;;;;;;30.30;15.40;;;;;;;;;;5068398;28;20807;-61
2022/03/10 04:55:10;;;;;;;29.30;17.57;;;;;;;;;;5066870;28;20294;-61
2022/03/10 04:57:36;;;;;;;30.30;16.60;;;;;;;;;;5060578;28;20689;-61
2022/03/10 05:00:08;;;;;;;31.17;15.53;;;;;;;;;;5047298;28;20284;-61
2022/03/10 05:02:35;;;;;;;25.80;14.53;;;;;;;;;;5048805;28;20326;-61
2022/03/10 05:05:02;;;;;;;30.30;15.93;;;;;;;;;;5051746;28;20718;-61
2022/03/10 05:07:28;;;;;;;32.00;16.13;;;;;;;;;;5068260;28;20279;-61
2022/03/10 05:09:54;;;;;;;29.20;16.00;;;;;;;;;;5068096;28;20283;-61
2022/03/10 05:12:21;;;;;;;25.07;15.43;;;;;;;;;;5071691;28;20290;-61
2022/03/10 05:14:47;;;;;;;29.83;15.90;;;;;;;;;;5070631;28;20290;-61
2022/03/10 05:17:13;;;;;;;25.97;15.13;;;;;;;;;;5069938;28;20272;-61
2022/03/10 05:19:39;;;;;;;28.80;15.70;;;;;;;;;;5051736;28;20279;-61
2022/03/10 05:22:05;;;;;;;27.70;15.77;;;;;;;;;;5051567;28;20333;-61
2022/03/10 05:24:31;;;;;;;26.03;15.47;;;;;;;;;;5051099;28;20314;-61
2022/03/10 05:26:58;;;;;;;28.97;15.97;;;;;;;;;;5051671;28;20295;-61
2022/03/10 05:29:24;;;;;;;26.40;15.83;;;;;;;;;;5051830;28;20306;-61
2022/03/10 05:31:50;;;;;;;31.57;16.90;;;;;;;;;;5051179;28;20295;-61
2022/03/10 05:34:17;;;;;;;28.47;16.00;;;;;;;;;;5050977;28;20650;-61
2022/03/10 05:36:43;;;;;;;30.30;16.53;;;;;;;;;;5051346;28;20291;-61
2022/03/10 05:39:09;;;;;;;31.00;15.63;;;;;;;;;;5051163;28;20326;-61
2022/03/10 05:41:35;;;;;;;27.93;15.73;;;;;;;;;;5050457;28;20295;-61
2022/03/10 05:44:01;;;;;;;34.70;17.00;;;;;;;;;;5058233;28;20303;-61
2022/03/10 05:46:27;;;;;;;29.77;15.63;;;;;;;;;;5071168;28;20290;-61
2022/03/10 05:48:54;;;;;;;26.87;14.30;;;;;;;;;;5066643;28;20326;-61
2022/03/10 05:51:20;;;;;;;25.33;14.30;;;;;;;;;;5050407;28;20279;-61
2022/03/10 05:53:49;;;;;;;29.53;14.17;;;;;;;;;;5054727;28;20386;-61
2022/03/10 05:56:15;;;;;;;34.10;16.33;;;;;;;;;;5051032;28;20360;-63
2022/03/10 05:58:41;;;;;;;27.23;14.80;;;;;;;;;;5052037;28;20299;-61
2022/03/10 06:01:08;;;;;;;26.93;14.80;;;;;;;;;;5050542;28;20307;-61
2022/03/10 06:03:34;;;;;;;24.67;14.57;;;;;;;;;;5054224;28;20816;-61
2022/03/10 06:06:00;;;;;;;28.67;14.43;;;;;;;;;;5050561;28;20287;-61
2022/03/10 06:08:26;;;;;;;32.43;16.20;;;;;;;;;;5050199;28;20369;-61
2022/03/10 06:10:52;;;;;;;29.23;15.57;;;;;;;;;;5060620;28;20710;-61
2022/03/10 06:13:18;;;;;;;33.97;16.00;;;;;;;;;;5062743;28;20318;-61
2022/03/10 06:15:44;;;;;;;36.57;17.07;;;;;;;;;;5052083;28;20279;-61
2022/03/10 06:18:10;;;;;;;30.73;16.07;;;;;;;;;;5070317;28;20633;-61
2022/03/10 06:20:36;;;;;;;35.43;15.93;;;;;;;;;;5052318;28;20855;-61
2022/03/10 06:23:03;;;;;;;31.70;16.67;;;;;;;;;;5062688;28;20807;-61
2022/03/10 06:25:29;;;;;;;30.50;16.27;;;;;;;;;;5051684;28;20745;-61
2022/03/10 06:27:55;;;;;;;30.73;15.30;;;;;;;;;;5049912;28;20823;-61
2022/03/10 06:30:21;;;;;;;28.70;14.57;;;;;;;;;;5052530;28;20287;-61
2022/03/10 06:32:47;;;;;;;26.70;15.47;;;;;;;;;;5049648;28;20284;-61
2022/03/10 06:35:13;;;;;;;24.97;14.57;;;;;;;;;;5050072;28;20286;-61
2022/03/10 06:37:39;;;;;;;27.40;15.17;;;;;;;;;;5056007;28;20348;-62
2022/03/10 06:40:06;;;;;;;26.97;15.93;;;;;;;;;;5055683;28;20785;-61
2022/03/10 06:42:32;;;;;;;25.97;15.37;;;;;;;;;;5050157;28;20279;-61
2022/03/10 06:44:58;;;;;;;26.20;14.27;;;;;;;;;;5061797;28;20318;-61
2022/03/10 06:47:24;;;;;;;28.37;15.17;;;;;;;;;;5057110;28;20703;-61
2022/03/10 06:49:50;;;;;;;25.07;15.33;;;;;;;;;;5069430;28;20626;-61
2022/03/10 06:52:19;;;;;;;30.53;15.00;;;;;;;;;;5057569;28;21157;-61
2022/03/10 06:54:45;;;;;;;23.97;13.63;;;;;;;;;;5058891;28;20661;-61
2022/03/10 06:57:12;;;;;;;23.93;14.70;;;;;;;;;;5048051;28;20284;-61
2022/03/10 06:59:38;;;;;;;27.60;14.20;;;;;;;;;;5054557;28;20306;-61
2022/03/10 07:02:05;;;;;;;25.00;14.03;;;;;;;;;;5051667;28;20287;-61
2022/03/10 07:04:31;;;;;;;23.37;13.40;;;;;;;;;;5047953;28;20676;-61
2022/03/10 07:06:57;;;;;;;24.20;12.63;;;;;;;;;;5048596;28;20283;-61
2022/03/10 07:09:23;;;;;;;25.40;12.93;;;;;;;;;;5049191;28;20341;-61
2022/03/10 07:11:49;;;;;;;23.97;11.70;;;;;;;;;;5048493;28;20307;-61
2022/03/10 07:14:15;;;;;;;23.90;11.77;;;;;;;;;;5048498;28;20594;-61
2022/03/10 07:16:43;;;;;;;20.27;12.20;;;;;;;;;;5049352;28;20287;-61
2022/03/10 07:19:10;;;;;;;32.13;13.40;;;;;;;;;;5047556;28;20302;-62
2022/03/10 07:21:39;;;;;;;20.03;11.77;;;;;;;;;;5047488;28;20287;-62
2022/03/10 07:24:05;;;;;;;24.67;13.50;;;;;;;;;;5048090;28;20312;-62
2022/03/10 07:26:31;;;;;;;20.27;11.63;;;;;;;;;;5028830;28;20281;-62
2022/03/10 07:28:59;;;;;;;22.97;11.53;;;;;;;;;;5027524;28;20287;-61
2022/03/10 07:31:26;;;;;;;19.60;12.07;;;;;;;;;;5027526;28;20675;-62
2022/03/10 07:33:52;;;;;;;18.77;11.23;;;;;;;;;;5027222;28;20347;-62
2022/03/10 07:36:18;;;;;;;21.47;13.07;;;;;;;;;;5028270;28;20284;-63
2022/03/10 07:38:44;;;;;;;24.70;12.83;;;;;;;;;;5028218;28;20284;-62
2022/03/10 07:41:10;;;;;;;21.40;12.80;;;;;;;;;;5028065;28;20280;-63
2022/03/10 07:43:36;;;;;;;24.23;11.90;;;;;;;;;;5027454;28;20280;-62
2022/03/10 07:46:05;;;;;;;19.60;11.10;;;;;;;;;;5026844;28;20327;-62
2022/03/10 07:48:31;;;;;;;19.67;11.70;;;;;;;;;;5034984;28;20287;-62
2022/03/10 07:50:57;;;;;;;20.87;11.20;;;;;;;;;;5048211;28;20296;-62
2022/03/10 07:53:23;;;;;;;21.80;12.37;;;;;;;;;;5047526;28;20348;-62
2022/03/10 07:55:54;;;;;;;20.00;11.43;;;;;;;;;;5048624;28;20318;-62
2022/03/10 07:58:23;;;;;;;21.77;12.23;;;;;;;;;;5048254;28;20288;-62
2022/03/10 08:00:49;;;;;;;19.43;11.27;;;;;;;;;;5048499;28;20283;-62
2022/03/10 08:03:16;;;;;;;20.33;12.23;;;;;;;;;;5048388;28;20287;-63
2022/03/10 08:05:43;;;;;;;17.40;11.43;;;;;;;;;;5048337;28;20045;-63
2022/03/10 08:08:09;;;;;;;16.97;11.47;;;;;;;;;;5048003;28;20052;-62
2022/03/10 08:10:35;;;;;;;19.90;11.47;;;;;;;;;;5048413;28;20049;-63
2022/03/10 08:13:01;;;;;;;21.20;11.97;;;;;;;;;;5048057;28;20517;-63
2022/03/10 08:15:28;;;;;;;17.83;10.83;;;;;;;;;;5048337;28;20045;-63
2022/03/10 08:17:54;;;;;;;19.03;12.53;;;;;;;;;;5046688;28;20052;-63
2022/03/10 08:20:20;;;;;;;22.40;12.23;;;;;;;;;;5047450;28;20840;-64
2022/03/10 08:22:46;;;;;;;18.10;11.03;;;;;;;;;;5048532;28;20709;-62
2022/03/10 08:25:12;;;;;;;20.23;11.33;;;;;;;;;;5047884;28;20563;-63
2022/03/10 08:27:38;;;;;;;21.57;11.50;;;;;;;;;;5048366;28;20041;-62
2022/03/10 08:30:04;;;;;;;17.77;11.43;;;;;;;;;;5047771;28;20485;-63
2022/03/10 08:32:30;;;;;;;19.63;12.37;;;;;;;;;;5048030;28;20135;-63
2022/03/10 08:34:57;;;;;;;18.63;12.17;;;;;;;;;;5047936;28;20140;-63
2022/03/10 08:37:23;;;;;;;18.10;11.30;;;;;;;;;;5047367;28;20566;-63
2022/03/10 08:39:49;;;;;;;20.10;11.23;;;;;;;;;;5047702;28;20514;-63
2022/03/10 08:42:15;;;;;;;17.40;11.90;;;;;;;;;;5047965;28;20511;-63
2022/03/10 08:44:41;;;;;;;18.00;11.40;;;;;;;;;;5048897;28;20144;-62
2022/03/10 08:47:07;;;;;;;18.83;11.47;;;;;;;;;;5051815;28;20119;-62
2022/03/10 08:49:33;;;;;;;20.43;11.67;;;;;;;;;;5051653;28;20052;-63
2022/03/10 08:51:59;;;;;;;17.10;10.77;;;;;;;;;;5051402;28;20526;-63
2022/03/10 08:54:25;;;;;;;21.67;12.17;;;;;;;;;;5051513;28;20051;-63
2022/03/10 08:56:51;;;;;;;17.30;10.87;;;;;;;;;;5051518;28;20076;-63
2022/03/10 08:59:17;;;;;;;15.83;12.03;;;;;;;;;;5051693;28;20411;-63
2022/03/10 09:01:43;;;;;;;19.13;11.23;;;;;;;;;;5051791;28;20053;-63
2022/03/10 09:04:09;;;;;;;20.20;12.27;;;;;;;;;;5051088;28;20052;-63
2022/03/10 09:06:36;;;;;;;21.23;11.23;;;;;;;;;;5051129;28;20037;-63
2022/03/10 09:09:03;;;;;;;17.50;11.03;;;;;;;;;;5051693;28;20045;-63
2022/03/10 09:11:29;;;;;;;18.33;11.37;;;;;;;;;;5051730;28;20052;-63
2022/03/10 09:13:55;;;;;;;16.90;10.90;;;;;;;;;;5050485;28;20074;-63
2022/03/10 09:16:22;;;;;;;16.10;10.87;;;;;;;;;;5051004;28;20045;-62
2022/03/10 09:18:51;;;;;;;17.77;10.83;;;;;;;;;;5051517;28;20049;-63
2022/03/10 09:21:18;;;;;;;17.50;11.30;;;;;;;;;;5050950;28;20060;-63
2022/03/10 09:23:44;;;;;;;18.67;12.17;;;;;;;;;;5051267;28;20048;-63
2022/03/10 09:26:10;;;;;;;20.87;11.27;;;;;;;;;;5050275;28;20103;-63
2022/03/10 09:28:36;;;;;;;15.03;10.77;;;;;;;;;;5043651;28;20045;-63
2022/03/10 09:31:02;;;;;;;18.67;11.83;;;;;;;;;;5050565;28;20084;-63
2022/03/10 09:33:28;;;;;;;18.23;11.50;;;;;;;;;;5051259;28;20048;-63
2022/03/10 09:35:56;;;;;;;16.90;11.23;;;;;;;;;;5050607;28;20048;-63
2022/03/10 09:38:22;;;;;;;18.13;11.23;;;;;;;;;;5050867;28;20069;-63
2022/03/10 09:40:52;;;;;;;17.27;11.57;;;;;;;;;;5050559;28;20041;-63
2022/03/10 09:43:21;;;;;;;17.20;11.83;;;;;;;;;;5050035;28;20056;-63
2022/03/10 09:45:47;;;;;;;15.60;10.70;;;;;;;;;;5043374;28;20057;-63
2022/03/10 09:48:13;;;;;;;19.47;12.20;;;;;;;;;;5050560;28;20087;-63
2022/03/10 09:50:39;;;;;;;18.30;11.53;;;;;;;;;;5049741;28;20045;-63
2022/03/10 09:53:05;;;;;;;18.53;12.40;;;;;;;;;;5049611;28;20124;-63
2022/03/10 09:55:31;;;;;;;18.40;11.57;;;;;;;;;;5050603;28;20582;-63
2022/03/10 09:57:59;;;;;;;19.00;12.57;;;;;;;;;;5050193;28;20041;-63
2022/03/10 10:00:26;;;;;;;16.97;12.07;;;;;;;;;;5036472;28;20044;-63
2022/03/10 10:02:52;;;;;;;19.03;11.80;;;;;;;;;;5030525;28;20057;-63
2022/03/10 10:05:21;;;;;;;21.80;12.53;;;;;;;;;;5029280;28;20427;-63
2022/03/10 10:08:03;;;;;;;18.53;12.53;;;;;;;;;;5030391;28;20424;-63
2022/03/10 10:10:31;;;;;;;18.73;12.00;;;;;;;;;;5030635;28;20045;-63
2022/03/10 10:12:57;;;;;;;16.63;12.30;;;;;;;;;;5029946;28;20095;-63
2022/03/10 10:15:23;;;;;;;17.23;12.03;;;;;;;;;;5039357;28;20391;-63
2022/03/10 10:17:56;;;;;;;20.93;12.83;;;;;;;;;;5048512;28;20469;-63
2022/03/10 10:20:22;;;;;;;19.90;12.43;;;;;;;;;;5049141;28;20059;-63
2022/03/10 10:22:50;;;;;;;17.90;12.00;;;;;;;;;;5049018;28;20056;-64
2022/03/10 10:25:20;;;;;;;20.00;13.20;;;;;;;;;;5048943;28;20107;-63
2022/03/10 10:27:49;;;;;;;18.20;13.43;;;;;;;;;;5049873;28;20147;-63
2022/03/10 10:30:15;;;;;;;22.23;13.27;;;;;;;;;;5049402;28;20040;-63
2022/03/10 10:32:44;;;;;;;16.83;13.77;;;;;;;;;;5049329;28;20080;-63
2022/03/10 10:35:10;;;;;;;20.53;13.33;;;;;;;;;;5049688;28;20140;-63
2022/03/10 10:37:38;;;;;;;23.23;14.13;;;;;;;;;;5048297;28;20157;-63
2022/03/10 10:40:05;;;;;;;19.30;13.67;;;;;;;;;;5049199;28;20041;-63
2022/03/10 10:42:36;;;;;;;21.87;14.80;;;;;;;;;;5049700;28;20047;-63
2022/03/10 10:45:22;;;;;;;18.13;13.50;;;;;;;;;;5049342;28;20041;-64
2022/03/10 10:48:04;;;;;;;18.97;13.60;;;;;;;;;;5049412;28;20156;-63
2022/03/10 10:50:34;;;;;;;19.13;13.90;;;;;;;;;;5050264;28;20044;-63
2022/03/10 10:53:00;;;;;;;21.80;13.67;;;;;;;;;;5050442;28;20418;-63
2022/03/10 10:55:42;;;;;;;19.77;14.17;;;;;;;;;;5048804;28;20400;-63
2022/03/10 10:58:09;;;;;;;20.20;13.67;;;;;;;;;;5048756;28;20044;-63
2022/03/10 11:00:49;;;;;;;21.10;14.70;;;;;;;;;;5047112;28;20084;-63
2022/03/10 11:03:25;;;;;;;18.87;13.53;;;;;;;;;;5048598;28;20052;-64
2022/03/10 11:05:51;;;;;;;20.13;14.77;;;;;;;;;;5048582;28;20134;-64
2022/03/10 11:08:21;;;;;;;22.10;15.80;;;;;;;;;;5048292;28;20103;-64
2022/03/10 11:10:47;;;;;;;22.13;14.33;;;;;;;;;;5048194;28;20050;-64
2022/03/10 11:13:14;;;;;;;20.73;13.87;;;;;;;;;;5046558;28;20106;-64
2022/03/10 11:15:41;;;;;;;21.20;14.30;;;;;;;;;;5029572;28;20140;-63
2022/03/10 11:18:09;;;;;;;21.50;15.43;;;;;;;;;;5028921;28;20067;-64
2022/03/10 11:20:35;;;;;;;20.27;14.80;;;;;;;;;;5028597;28;20713;-64
2022/03/10 11:23:01;;;;;;;19.00;14.47;;;;;;;;;;5042833;28;20461;-64
2022/03/10 11:25:46;;;;;;;20.80;14.63;;;;;;;;;;5048501;28;20045;-64
2022/03/10 11:28:21;;;;;;;21.90;15.10;;;;;;;;;;5048805;28;20469;-64
2022/03/10 11:30:53;;;;;;;22.47;15.77;;;;;;;;;;5048545;28;20129;-64
2022/03/10 11:33:19;;;;;;;23.40;15.33;;;;;;;;;;5048007;28;20044;-64
2022/03/10 11:35:45;;;;;;;21.17;15.50;;;;;;;;;;5047100;28;20048;-64
2022/03/10 11:38:11;;;;;;;20.50;15.63;;;;;;;;;;5048521;28;20041;-64
2022/03/10 11:40:43;;;;;;;23.27;16.07;;;;;;;;;;5046794;28;20068;-63
2022/03/10 11:43:10;;;;;;;21.33;15.50;;;;;;;;;;5047533;28;20072;-64
2022/03/10 11:45:36;;;;;;;19.90;15.60;;;;;;;;;;5046295;28;20045;-64
2022/03/10 11:48:21;;;;;;;21.97;17.13;;;;;;;;;;5038335;28;20033;-64
2022/03/10 11:50:46;;;;;;;26.03;17.00;;;;;;;;;;5047765;28;20045;-64
2022/03/10 11:53:12;;;;;;;25.77;18.07;;;;;;;;;;5047647;28;20583;-64
2022/03/10 11:55:46;;;;;;;26.47;17.23;;;;;;;;;;5047839;28;20041;-64
2022/03/10 11:58:14;;;;;;;22.20;16.10;;;;;;;;;;5044462;28;20114;-64
2022/03/10 12:00:40;;;;;;;22.17;17.50;;;;;;;;;;5047691;28;20075;-64
2022/03/10 12:03:06;;;;;;;24.90;18.00;;;;;;;;;;5047398;28;20041;-64
2022/03/10 12:05:55;;;;;;;23.07;16.80;;;;;;;;;;5046212;28;20045;-64
2022/03/10 12:08:22;;;;;;;27.63;16.63;;;;;;;;;;5047797;28;20052;-64
2022/03/10 12:10:48;;;;;;;26.40;17.97;;;;;;;;;;5047868;28;20127;-64
2022/03/10 12:13:34;;;;;;;23.87;17.57;;;;;;;;;;5047398;28;20041;-64
2022/03/10 12:16:01;;;;;;;25.30;18.33;;;;;;;;;;5047569;28;20485;-61
2022/03/10 12:18:42;;;;;;;22.30;17.97;;;;;;;;;;5047286;28;20057;-61
2022/03/10 12:21:27;;;;;;;27.73;18.17;;;;;;;;;;5038838;28;20049;-62
2022/03/10 12:23:54;;;;;;;21.97;17.53;;;;;;;;;;5051747;28;20498;-61
2022/03/10 12:26:30;;;;;;;22.60;17.57;;;;;;;;;;5050871;28;20106;-61
2022/03/10 12:28:57;;;;;;;21.93;17.70;;;;;;;;;;5051448;28;20518;-64
2022/03/10 12:31:24;;;;;;;21.30;17.10;;;;;;;;;;5051755;28;20056;-64
2022/03/10 12:33:54;;;;;;;24.23;16.97;;;;;;;;;;5051918;28;20502;-64
2022/03/10 12:36:30;;;;;;;22.27;17.00;;;;;;;;;;5052115;28;20140;-64
2022/03/10 12:38:57;;;;;;;21.73;16.53;;;;;;;;;;5052021;28;20144;-64
2022/03/10 12:41:27;;;;;;;24.37;17.20;;;;;;;;;;5051871;28;20036;-63
2022/03/10 12:43:54;;;;;;;23.63;16.30;;;;;;;;;;5051215;28;20098;-61
2022/03/10 12:46:20;;;;;;;21.63;16.87;;;;;;;;;;5052040;28;20052;-62
2022/03/10 12:48:59;;;;;;;20.30;16.27;;;;;;;;;;5052039;28;20040;-62
2022/03/10 12:51:28;;;;;;;24.70;17.73;;;;;;;;;;5051771;28;20045;-62
2022/03/10 12:53:54;;;;;;;20.30;15.83;;;;;;;;;;5051656;28;20150;-62
2022/03/10 12:56:20;;;;;;;24.33;16.40;;;;;;;;;;5051148;28;20402;-62
2022/03/10 12:58:47;;;;;;;21.33;16.53;;;;;;;;;;5051774;28;20127;-62
2022/03/10 13:01:14;;;;;;;23.17;17.10;;;;;;;;;;5051188;28;20037;-62
2022/03/10 13:03:49;;;;;;;22.10;16.00;;;;;;;;;;5051325;28;20049;-62
2022/03/10 13:06:15;;;;;;;22.07;16.47;;;;;;;;;;5051497;28;20052;-62
2022/03/10 13:08:45;;;;;;;23.93;17.17;;;;;;;;;;5051606;28;20415;-62
2022/03/10 13:11:11;;;;;;;22.03;16.17;;;;;;;;;;5051091;28;20045;-62
2022/03/10 13:13:38;;;;;;;22.27;17.13;;;;;;;;;;5051278;28;20049;-62
2022/03/10 13:16:05;;;;;;;22.30;17.40;;;;;;;;;;5051172;28;20491;-62
2022/03/10 13:18:44;;;;;;;20.97;15.70;;;;;;;;;;5050979;28;20102;-62
2022/03/10 13:21:10;;;;;;;23.07;16.70;;;;;;;;;;5050932;28;20044;-63
2022/03/10 13:23:37;;;;;;;19.90;16.77;;;;;;;;;;5050951;28;20045;-62
2022/03/10 13:26:03;;;;;;;21.93;16.67;;;;;;;;;;5051026;28;20076;-62
2022/03/10 13:28:31;;;;;;;21.40;16.17;;;;;;;;;;5051081;28;20407;-62
2022/03/10 13:30:57;;;;;;;22.17;16.77;;;;;;;;;;5049551;28;20166;-62
2022/03/10 13:33:25;;;;;;;19.20;15.97;;;;;;;;;;5050502;28;20106;-62
2022/03/10 13:35:57;;;;;;;20.90;15.13;;;;;;;;;;5051111;28;20464;-62
2022/03/10 13:38:24;;;;;;;20.60;15.83;;;;;;;;;;5050594;28;20048;-63
2022/03/10 13:40:51;;;;;;;22.70;16.20;;;;;;;;;;5050902;28;20091;-62
2022/03/10 13:43:21;;;;;;;20.67;16.70;;;;;;;;;;5050738;28;20132;-62
2022/03/10 13:45:47;;;;;;;19.60;16.33;;;;;;;;;;5050447;28;20530;-62
2022/03/10 13:48:20;;;;;;;19.87;16.13;;;;;;;;;;5050460;28;20049;-63
2022/03/10 13:50:46;;;;;;;;;;;;;;;;;;5050549;28;20395;-62
2022/03/10 13:53:13;;;;;;;21.93;16.60;;;;;;;;;;5050407;28;19932;-62
2022/03/10 13:55:43;;;;;;;21.10;16.40;;;;;;;;;;5050716;28;20036;-62
2022/03/10 13:58:09;;;;;;;18.37;15.23;;;;;;;;;;5050664;28;20060;-62
2022/03/10 14:00:36;;;;;;;21.17;16.90;;;;;;;;;;5050369;28;20063;-63
2022/03/10 14:03:22;;;;;;;19.42;15.50;;;;;;;;;;5050280;28;20128;-62
2022/03/10 14:06:02;;;;;;;18.77;15.73;;;;;;;;;;5048682;28;20111;-62
2022/03/10 14:08:28;;;;;;;21.10;15.90;;;;;;;;;;5050062;28;20078;-63
2022/03/10 14:11:00;;;;;;;21.48;16.00;;;;;;;;;;5049579;28;20155;-62
2022/03/10 14:13:28;;;;;;;18.20;15.57;;;;;;;;;;5050255;28;20051;-62
2022/03/10 14:15:58;;;;;;;20.25;15.45;;;;;;;;;;5050191;28;20076;-62
2022/03/10 14:18:25;;;;;;;21.48;16.45;;;;;;;;;;5050038;28;20119;-62
2022/03/10 14:20:51;;;;;;;21.30;17.15;;;;;;;;;;5050056;28;20119;-62
2022/03/10 14:23:21;;;;;;;22.20;16.37;;;;;;;;;;5050127;28;20052;-62
2022/03/10 14:25:48;;;;;;;21.42;16.38;;;;;;;;;;5049953;28;20048;-62